sensor_id;sensor_type;location;lat;lon;timestamp;P1;durP1;ratioP1;P2;durP2;ratioP2
12852;SDS011;6495;51.808;7.478;2023-06-01T00:00:00;9.20;;;4.88;;
12852;SDS011;6495;51.808;7.478;2023-06-01T00:02:33;17.52;;;5.10;;
12852;SDS011;6495;51.808;7.478;2023-06-01T00:05:05;11.10;;;5.47;;
12852;SDS011;6495;51.808;7.478;2023-06-01T00:07:34;8.75;;;4.60;;
12852;SDS011;6495;51.808;7.478;2023-06-01T00:10:03;9.63;;;5.30;;
12852;SDS011;6495;51.808;7.478;2023-06-01T00:12:32;7.57;;;4.43;;
12852;SDS011;6495;51.808;7.478;2023-06-01T00:15:00;7.70;;;4.80;;
12852;SDS011;6495;51.808;7.478;2023-06-01T00:17:29;7.20;;;5.47;;
12852;SDS011;6495;51.808;7.478;2023-06-01T00:19:58;8.95;;;5.57;;
12852;SDS011;6495;51.808;7.478;2023-06-01T00:22:29;10.82;;;5.22;;
12852;SDS011;6495;51.808;7.478;2023-06-01T00:25:00;8.43;;;4.70;;
12852;SDS011;6495;51.808;7.478;2023-06-01T00:27:28;10.40;;;5.55;;
12852;SDS011;6495;51.808;7.478;2023-06-01T00:29:56;9.90;;;4.80;;
12852;SDS011;6495;51.808;7.478;2023-06-01T00:32:25;13.35;;;5.00;;
12852;SDS011;6495;51.808;7.478;2023-06-01T00:34:53;11.23;;;5.90;;
12852;SDS011;6495;51.808;7.478;2023-06-01T00:37:21;8.18;;;5.05;;
12852;SDS011;6495;51.808;7.478;2023-06-01T00:39:50;10.45;;;5.72;;
12852;SDS011;6495;51.808;7.478;2023-06-01T00:42:19;10.07;;;5.40;;
12852;SDS011;6495;51.808;7.478;2023-06-01T00:44:47;11.48;;;5.53;;
12852;SDS011;6495;51.808;7.478;2023-06-01T00:47:16;9.73;;;5.43;;
12852;SDS011;6495;51.808;7.478;2023-06-01T00:49:44;9.65;;;5.47;;
12852;SDS011;6495;51.808;7.478;2023-06-01T00:52:13;11.57;;;5.70;;
12852;SDS011;6495;51.808;7.478;2023-06-01T00:54:42;13.52;;;5.50;;
12852;SDS011;6495;51.808;7.478;2023-06-01T00:57:12;13.63;;;5.75;;
12852;SDS011;6495;51.808;7.478;2023-06-01T00:59:41;11.02;;;5.53;;
12852;SDS011;6495;51.808;7.478;2023-06-01T01:02:09;10.60;;;5.38;;
12852;SDS011;6495;51.808;7.478;2023-06-01T01:04:41;9.98;;;6.07;;
12852;SDS011;6495;51.808;7.478;2023-06-01T01:07:12;11.57;;;5.20;;
12852;SDS011;6495;51.808;7.478;2023-06-01T01:09:53;13.35;;;5.82;;
12852;SDS011;6495;51.808;7.478;2023-06-01T01:12:35;12.18;;;6.20;;
12852;SDS011;6495;51.808;7.478;2023-06-01T01:15:15;9.35;;;6.43;;
12852;SDS011;6495;51.808;7.478;2023-06-01T01:17:54;12.50;;;6.15;;
12852;SDS011;6495;51.808;7.478;2023-06-01T01:20:33;12.73;;;6.30;;
12852;SDS011;6495;51.808;7.478;2023-06-01T01:23:06;12.77;;;6.78;;
12852;SDS011;6495;51.808;7.478;2023-06-01T01:26:12;11.05;;;6.88;;
12852;SDS011;6495;51.808;7.478;2023-06-01T01:28:57;12.25;;;6.35;;
12852;SDS011;6495;51.808;7.478;2023-06-01T01:31:33;14.52;;;6.78;;
12852;SDS011;6495;51.808;7.478;2023-06-01T01:34:02;11.07;;;5.70;;
12852;SDS011;6495;51.808;7.478;2023-06-01T01:36:32;13.23;;;6.85;;
12852;SDS011;6495;51.808;7.478;2023-06-01T01:39:01;12.35;;;6.63;;
12852;SDS011;6495;51.808;7.478;2023-06-01T01:41:31;9.60;;;6.43;;
12852;SDS011;6495;51.808;7.478;2023-06-01T01:44:01;13.20;;;5.82;;
12852;SDS011;6495;51.808;7.478;2023-06-01T01:46:32;11.98;;;5.97;;
12852;SDS011;6495;51.808;7.478;2023-06-01T01:49:14;9.48;;;5.68;;
12852;SDS011;6495;51.808;7.478;2023-06-01T01:51:52;15.85;;;6.78;;
12852;SDS011;6495;51.808;7.478;2023-06-01T01:54:29;9.98;;;6.03;;
12852;SDS011;6495;51.808;7.478;2023-06-01T01:57:01;12.27;;;5.75;;
12852;SDS011;6495;51.808;7.478;2023-06-01T01:59:34;11.25;;;6.68;;
12852;SDS011;6495;51.808;7.478;2023-06-01T02:02:03;10.80;;;7.00;;
12852;SDS011;6495;51.808;7.478;2023-06-01T02:04:32;11.50;;;6.38;;
12852;SDS011;6495;51.808;7.478;2023-06-01T02:07:07;12.15;;;6.32;;
12852;SDS011;6495;51.808;7.478;2023-06-01T02:09:36;11.73;;;6.13;;
12852;SDS011;6495;51.808;7.478;2023-06-01T02:12:07;12.52;;;5.70;;
12852;SDS011;6495;51.808;7.478;2023-06-01T02:14:37;10.15;;;6.03;;
12852;SDS011;6495;51.808;7.478;2023-06-01T02:17:06;9.20;;;5.70;;
12852;SDS011;6495;51.808;7.478;2023-06-01T02:19:34;14.13;;;5.38;;
12852;SDS011;6495;51.808;7.478;2023-06-01T02:22:06;10.55;;;6.18;;
12852;SDS011;6495;51.808;7.478;2023-06-01T02:24:34;10.65;;;6.38;;
12852;SDS011;6495;51.808;7.478;2023-06-01T02:27:02;8.95;;;5.78;;
12852;SDS011;6495;51.808;7.478;2023-06-01T02:29:32;10.77;;;6.65;;
12852;SDS011;6495;51.808;7.478;2023-06-01T02:32:02;9.50;;;6.22;;
12852;SDS011;6495;51.808;7.478;2023-06-01T02:34:31;11.45;;;6.15;;
12852;SDS011;6495;51.808;7.478;2023-06-01T02:36:59;11.73;;;6.13;;
12852;SDS011;6495;51.808;7.478;2023-06-01T02:39:28;11.40;;;6.28;;
12852;SDS011;6495;51.808;7.478;2023-06-01T02:41:56;13.70;;;5.82;;
12852;SDS011;6495;51.808;7.478;2023-06-01T02:44:24;11.32;;;5.80;;
12852;SDS011;6495;51.808;7.478;2023-06-01T02:46:52;11.38;;;6.28;;
12852;SDS011;6495;51.808;7.478;2023-06-01T02:49:22;9.27;;;5.10;;
12852;SDS011;6495;51.808;7.478;2023-06-01T02:51:50;12.13;;;5.88;;
12852;SDS011;6495;51.808;7.478;2023-06-01T02:54:22;12.25;;;5.72;;
12852;SDS011;6495;51.808;7.478;2023-06-01T02:56:52;11.40;;;5.75;;
12852;SDS011;6495;51.808;7.478;2023-06-01T02:59:34;12.35;;;6.18;;
12852;SDS011;6495;51.808;7.478;2023-06-01T03:02:03;9.40;;;5.50;;
12852;SDS011;6495;51.808;7.478;2023-06-01T03:04:33;9.70;;;5.43;;
12852;SDS011;6495;51.808;7.478;2023-06-01T03:07:02;9.48;;;5.03;;
12852;SDS011;6495;51.808;7.478;2023-06-01T03:09:52;12.38;;;5.95;;
12852;SDS011;6495;51.808;7.478;2023-06-01T03:12:40;12.40;;;5.45;;
12852;SDS011;6495;51.808;7.478;2023-06-01T03:15:09;7.72;;;5.00;;
12852;SDS011;6495;51.808;7.478;2023-06-01T03:17:38;9.98;;;6.20;;
12852;SDS011;6495;51.808;7.478;2023-06-01T03:20:08;10.68;;;4.82;;
12852;SDS011;6495;51.808;7.478;2023-06-01T03:22:42;9.75;;;5.10;;
12852;SDS011;6495;51.808;7.478;2023-06-01T03:25:11;10.13;;;5.05;;
12852;SDS011;6495;51.808;7.478;2023-06-01T03:27:40;7.93;;;4.88;;
12852;SDS011;6495;51.808;7.478;2023-06-01T03:30:09;9.32;;;5.32;;
12852;SDS011;6495;51.808;7.478;2023-06-01T03:32:41;8.32;;;5.18;;
12852;SDS011;6495;51.808;7.478;2023-06-01T03:35:12;10.52;;;5.28;;
12852;SDS011;6495;51.808;7.478;2023-06-01T03:37:42;7.00;;;4.80;;
12852;SDS011;6495;51.808;7.478;2023-06-01T03:40:15;8.60;;;4.72;;
12852;SDS011;6495;51.808;7.478;2023-06-01T03:42:44;9.18;;;4.75;;
12852;SDS011;6495;51.808;7.478;2023-06-01T03:45:15;8.88;;;5.25;;
12852;SDS011;6495;51.808;7.478;2023-06-01T03:47:44;8.25;;;4.85;;
12852;SDS011;6495;51.808;7.478;2023-06-01T03:50:14;9.75;;;5.03;;
12852;SDS011;6495;51.808;7.478;2023-06-01T03:52:42;9.75;;;4.93;;
12852;SDS011;6495;51.808;7.478;2023-06-01T03:55:20;9.30;;;4.82;;
12852;SDS011;6495;51.808;7.478;2023-06-01T03:58:10;12.48;;;5.20;;
12852;SDS011;6495;51.808;7.478;2023-06-01T04:00:39;9.18;;;5.32;;
12852;SDS011;6495;51.808;7.478;2023-06-01T04:03:07;8.65;;;5.45;;
12852;SDS011;6495;51.808;7.478;2023-06-01T04:05:37;10.23;;;5.15;;
12852;SDS011;6495;51.808;7.478;2023-06-01T04:08:05;10.07;;;5.30;;
12852;SDS011;6495;51.808;7.478;2023-06-01T04:10:35;9.63;;;5.20;;
12852;SDS011;6495;51.808;7.478;2023-06-01T04:13:03;7.50;;;5.18;;
12852;SDS011;6495;51.808;7.478;2023-06-01T04:15:31;8.45;;;5.13;;
12852;SDS011;6495;51.808;7.478;2023-06-01T04:18:00;7.03;;;4.68;;
12852;SDS011;6495;51.808;7.478;2023-06-01T04:20:45;9.93;;;4.70;;
12852;SDS011;6495;51.808;7.478;2023-06-01T04:23:14;12.02;;;4.85;;
12852;SDS011;6495;51.808;7.478;2023-06-01T04:25:52;11.00;;;5.10;;
12852;SDS011;6495;51.808;7.478;2023-06-01T04:28:29;7.88;;;4.07;;
12852;SDS011;6495;51.808;7.478;2023-06-01T04:31:12;10.95;;;4.13;;
12852;SDS011;6495;51.808;7.478;2023-06-01T04:33:46;6.75;;;4.13;;
12852;SDS011;6495;51.808;7.478;2023-06-01T04:36:22;7.82;;;4.07;;
12852;SDS011;6495;51.808;7.478;2023-06-01T04:38:55;9.82;;;5.38;;
12852;SDS011;6495;51.808;7.478;2023-06-01T04:41:28;10.20;;;5.40;;
12852;SDS011;6495;51.808;7.478;2023-06-01T04:44:03;6.70;;;4.45;;
12852;SDS011;6495;51.808;7.478;2023-06-01T04:46:35;7.75;;;4.80;;
12852;SDS011;6495;51.808;7.478;2023-06-01T04:49:07;10.13;;;5.15;;
12852;SDS011;6495;51.808;7.478;2023-06-01T04:51:42;7.40;;;4.88;;
12852;SDS011;6495;51.808;7.478;2023-06-01T04:54:15;10.93;;;5.50;;
12852;SDS011;6495;51.808;7.478;2023-06-01T04:56:45;12.00;;;5.30;;
12852;SDS011;6495;51.808;7.478;2023-06-01T04:59:13;10.18;;;5.20;;
12852;SDS011;6495;51.808;7.478;2023-06-01T05:01:42;9.93;;;4.88;;
12852;SDS011;6495;51.808;7.478;2023-06-01T05:04:10;9.40;;;5.13;;
12852;SDS011;6495;51.808;7.478;2023-06-01T05:06:40;8.55;;;4.70;;
12852;SDS011;6495;51.808;7.478;2023-06-01T05:09:08;6.50;;;4.57;;
12852;SDS011;6495;51.808;7.478;2023-06-01T05:11:36;12.27;;;5.13;;
12852;SDS011;6495;51.808;7.478;2023-06-01T05:14:08;8.85;;;5.07;;
12852;SDS011;6495;51.808;7.478;2023-06-01T05:16:36;11.57;;;4.60;;
12852;SDS011;6495;51.808;7.478;2023-06-01T05:19:09;11.52;;;4.88;;
12852;SDS011;6495;51.808;7.478;2023-06-01T05:21:42;9.52;;;5.18;;
12852;SDS011;6495;51.808;7.478;2023-06-01T05:24:13;7.05;;;4.15;;
12852;SDS011;6495;51.808;7.478;2023-06-01T05:26:45;8.43;;;4.65;;
12852;SDS011;6495;51.808;7.478;2023-06-01T05:29:14;6.63;;;3.78;;
12852;SDS011;6495;51.808;7.478;2023-06-01T05:31:43;11.75;;;4.90;;
12852;SDS011;6495;51.808;7.478;2023-06-01T05:34:13;9.30;;;5.03;;
12852;SDS011;6495;51.808;7.478;2023-06-01T05:36:45;9.48;;;4.65;;
12852;SDS011;6495;51.808;7.478;2023-06-01T05:39:17;8.00;;;5.10;;
12852;SDS011;6495;51.808;7.478;2023-06-01T05:41:45;9.52;;;5.00;;
12852;SDS011;6495;51.808;7.478;2023-06-01T05:44:16;9.63;;;4.78;;
12852;SDS011;6495;51.808;7.478;2023-06-01T05:46:47;10.60;;;4.93;;
12852;SDS011;6495;51.808;7.478;2023-06-01T05:49:15;8.27;;;4.90;;
12852;SDS011;6495;51.808;7.478;2023-06-01T05:51:48;11.15;;;5.13;;
12852;SDS011;6495;51.808;7.478;2023-06-01T05:54:18;9.18;;;5.07;;
12852;SDS011;6495;51.808;7.478;2023-06-01T05:56:46;11.10;;;5.10;;
12852;SDS011;6495;51.808;7.478;2023-06-01T05:59:15;8.30;;;4.13;;
12852;SDS011;6495;51.808;7.478;2023-06-01T06:01:44;9.13;;;4.70;;
12852;SDS011;6495;51.808;7.478;2023-06-01T06:04:15;7.32;;;4.88;;
12852;SDS011;6495;51.808;7.478;2023-06-01T06:06:43;9.70;;;5.43;;
12852;SDS011;6495;51.808;7.478;2023-06-01T06:09:13;10.75;;;5.20;;
12852;SDS011;6495;51.808;7.478;2023-06-01T06:11:42;6.95;;;4.90;;
12852;SDS011;6495;51.808;7.478;2023-06-01T06:14:10;8.25;;;4.53;;
12852;SDS011;6495;51.808;7.478;2023-06-01T06:16:41;12.88;;;5.30;;
12852;SDS011;6495;51.808;7.478;2023-06-01T06:19:10;9.82;;;5.50;;
12852;SDS011;6495;51.808;7.478;2023-06-01T06:21:38;9.98;;;4.93;;
12852;SDS011;6495;51.808;7.478;2023-06-01T06:24:09;8.63;;;4.28;;
12852;SDS011;6495;51.808;7.478;2023-06-01T06:26:44;10.88;;;5.30;;
12852;SDS011;6495;51.808;7.478;2023-06-01T06:29:14;12.43;;;6.57;;
12852;SDS011;6495;51.808;7.478;2023-06-01T06:31:42;11.05;;;5.75;;
12852;SDS011;6495;51.808;7.478;2023-06-01T06:34:13;7.90;;;5.40;;
12852;SDS011;6495;51.808;7.478;2023-06-01T06:36:43;15.10;;;4.95;;
12852;SDS011;6495;51.808;7.478;2023-06-01T06:39:12;8.73;;;5.25;;
12852;SDS011;6495;51.808;7.478;2023-06-01T06:41:44;11.45;;;5.82;;
12852;SDS011;6495;51.808;7.478;2023-06-01T06:44:13;9.07;;;4.63;;
12852;SDS011;6495;51.808;7.478;2023-06-01T06:46:41;15.70;;;5.15;;
12852;SDS011;6495;51.808;7.478;2023-06-01T06:49:09;13.25;;;5.50;;
12852;SDS011;6495;51.808;7.478;2023-06-01T06:51:38;9.60;;;5.07;;
12852;SDS011;6495;51.808;7.478;2023-06-01T06:54:07;6.20;;;4.55;;
12852;SDS011;6495;51.808;7.478;2023-06-01T06:56:35;9.50;;;4.78;;
12852;SDS011;6495;51.808;7.478;2023-06-01T06:59:07;11.98;;;5.40;;
12852;SDS011;6495;51.808;7.478;2023-06-01T07:01:36;8.75;;;4.25;;
12852;SDS011;6495;51.808;7.478;2023-06-01T07:04:07;8.80;;;4.60;;
12852;SDS011;6495;51.808;7.478;2023-06-01T07:06:36;9.63;;;4.78;;
12852;SDS011;6495;51.808;7.478;2023-06-01T07:09:05;10.88;;;4.78;;
12852;SDS011;6495;51.808;7.478;2023-06-01T07:11:35;8.90;;;4.68;;
12852;SDS011;6495;51.808;7.478;2023-06-01T07:14:03;13.10;;;5.50;;
12852;SDS011;6495;51.808;7.478;2023-06-01T07:16:33;9.00;;;5.05;;
12852;SDS011;6495;51.808;7.478;2023-06-01T07:19:01;8.13;;;4.07;;
12852;SDS011;6495;51.808;7.478;2023-06-01T07:21:32;8.07;;;4.95;;
12852;SDS011;6495;51.808;7.478;2023-06-01T07:24:04;11.52;;;4.72;;
12852;SDS011;6495;51.808;7.478;2023-06-01T07:26:34;8.70;;;4.43;;
12852;SDS011;6495;51.808;7.478;2023-06-01T07:29:02;11.65;;;4.93;;
12852;SDS011;6495;51.808;7.478;2023-06-01T07:31:35;6.97;;;4.82;;
12852;SDS011;6495;51.808;7.478;2023-06-01T07:34:04;7.15;;;4.03;;
12852;SDS011;6495;51.808;7.478;2023-06-01T07:36:33;9.07;;;4.07;;
12852;SDS011;6495;51.808;7.478;2023-06-01T07:39:03;7.32;;;5.40;;
12852;SDS011;6495;51.808;7.478;2023-06-01T07:41:35;10.50;;;4.78;;
12852;SDS011;6495;51.808;7.478;2023-06-01T07:44:03;11.00;;;4.95;;
12852;SDS011;6495;51.808;7.478;2023-06-01T07:46:31;9.45;;;5.13;;
12852;SDS011;6495;51.808;7.478;2023-06-01T07:49:01;11.10;;;5.22;;
12852;SDS011;6495;51.808;7.478;2023-06-01T07:51:30;8.82;;;4.30;;
12852;SDS011;6495;51.808;7.478;2023-06-01T07:53:58;10.45;;;5.45;;
12852;SDS011;6495;51.808;7.478;2023-06-01T07:56:27;8.05;;;5.28;;
12852;SDS011;6495;51.808;7.478;2023-06-01T07:58:55;14.32;;;5.22;;
12852;SDS011;6495;51.808;7.478;2023-06-01T08:01:24;14.68;;;5.25;;
12852;SDS011;6495;51.808;7.478;2023-06-01T08:03:52;9.05;;;5.07;;
12852;SDS011;6495;51.808;7.478;2023-06-01T08:06:24;11.68;;;4.53;;
12852;SDS011;6495;51.808;7.478;2023-06-01T08:08:53;10.95;;;5.05;;
12852;SDS011;6495;51.808;7.478;2023-06-01T08:11:21;7.40;;;4.65;;
12852;SDS011;6495;51.808;7.478;2023-06-01T08:13:49;8.57;;;4.88;;
12852;SDS011;6495;51.808;7.478;2023-06-01T08:16:18;8.63;;;4.65;;
12852;SDS011;6495;51.808;7.478;2023-06-01T08:18:47;12.80;;;4.50;;
12852;SDS011;6495;51.808;7.478;2023-06-01T08:21:15;10.80;;;5.50;;
12852;SDS011;6495;51.808;7.478;2023-06-01T08:23:52;11.73;;;5.25;;
12852;SDS011;6495;51.808;7.478;2023-06-01T08:26:22;11.32;;;5.03;;
12852;SDS011;6495;51.808;7.478;2023-06-01T08:28:51;13.40;;;5.05;;
12852;SDS011;6495;51.808;7.478;2023-06-01T08:31:20;10.90;;;5.25;;
12852;SDS011;6495;51.808;7.478;2023-06-01T08:33:50;11.40;;;4.95;;
12852;SDS011;6495;51.808;7.478;2023-06-01T08:36:21;8.68;;;5.05;;
12852;SDS011;6495;51.808;7.478;2023-06-01T08:38:49;9.52;;;5.60;;
12852;SDS011;6495;51.808;7.478;2023-06-01T08:41:24;8.90;;;5.15;;
12852;SDS011;6495;51.808;7.478;2023-06-01T08:44:04;8.60;;;4.80;;
12852;SDS011;6495;51.808;7.478;2023-06-01T08:46:35;11.23;;;5.75;;
12852;SDS011;6495;51.808;7.478;2023-06-01T08:49:09;11.57;;;5.38;;
12852;SDS011;6495;51.808;7.478;2023-06-01T08:51:39;9.30;;;5.22;;
12852;SDS011;6495;51.808;7.478;2023-06-01T08:54:12;9.73;;;5.50;;
12852;SDS011;6495;51.808;7.478;2023-06-01T08:56:40;14.07;;;5.85;;
12852;SDS011;6495;51.808;7.478;2023-06-01T08:59:11;9.88;;;5.75;;
12852;SDS011;6495;51.808;7.478;2023-06-01T09:01:40;10.30;;;5.30;;
12852;SDS011;6495;51.808;7.478;2023-06-01T09:04:09;10.07;;;5.25;;
12852;SDS011;6495;51.808;7.478;2023-06-01T09:06:41;9.63;;;4.90;;
12852;SDS011;6495;51.808;7.478;2023-06-01T09:09:09;13.45;;;5.47;;
12852;SDS011;6495;51.808;7.478;2023-06-01T09:11:40;13.00;;;5.65;;
12852;SDS011;6495;51.808;7.478;2023-06-01T09:14:19;10.05;;;5.78;;
12852;SDS011;6495;51.808;7.478;2023-06-01T09:16:49;8.82;;;5.88;;
12852;SDS011;6495;51.808;7.478;2023-06-01T09:19:18;13.27;;;6.05;;
12852;SDS011;6495;51.808;7.478;2023-06-01T09:21:56;9.32;;;4.85;;
12852;SDS011;6495;51.808;7.478;2023-06-01T09:24:26;9.45;;;5.70;;
12852;SDS011;6495;51.808;7.478;2023-06-01T09:26:58;11.60;;;5.20;;
12852;SDS011;6495;51.808;7.478;2023-06-01T09:29:29;13.18;;;7.00;;
12852;SDS011;6495;51.808;7.478;2023-06-01T09:31:58;15.65;;;6.63;;
12852;SDS011;6495;51.808;7.478;2023-06-01T09:34:28;17.98;;;7.85;;
12852;SDS011;6495;51.808;7.478;2023-06-01T09:36:57;17.10;;;8.10;;
12852;SDS011;6495;51.808;7.478;2023-06-01T09:39:35;16.27;;;7.25;;
12852;SDS011;6495;51.808;7.478;2023-06-01T09:42:03;13.63;;;7.57;;
12852;SDS011;6495;51.808;7.478;2023-06-01T09:44:34;14.63;;;6.28;;
12852;SDS011;6495;51.808;7.478;2023-06-01T09:47:04;10.45;;;6.50;;
12852;SDS011;6495;51.808;7.478;2023-06-01T09:49:36;12.93;;;6.63;;
12852;SDS011;6495;51.808;7.478;2023-06-01T09:52:10;14.05;;;7.15;;
12852;SDS011;6495;51.808;7.478;2023-06-01T09:54:44;11.13;;;6.32;;
12852;SDS011;6495;51.808;7.478;2023-06-01T09:57:19;12.65;;;6.90;;
12852;SDS011;6495;51.808;7.478;2023-06-01T09:59:50;12.05;;;7.07;;
12852;SDS011;6495;51.808;7.478;2023-06-01T10:02:18;11.23;;;6.05;;
12852;SDS011;6495;51.808;7.478;2023-06-01T10:04:50;12.25;;;6.80;;
12852;SDS011;6495;51.808;7.478;2023-06-01T10:07:22;15.60;;;8.27;;
12852;SDS011;6495;51.808;7.478;2023-06-01T10:09:55;14.48;;;7.63;;
12852;SDS011;6495;51.808;7.478;2023-06-01T10:12:26;12.20;;;7.10;;
12852;SDS011;6495;51.808;7.478;2023-06-01T10:14:55;12.27;;;6.72;;
12852;SDS011;6495;51.808;7.478;2023-06-01T10:17:24;11.98;;;7.32;;
12852;SDS011;6495;51.808;7.478;2023-06-01T10:19:53;10.68;;;6.07;;
12852;SDS011;6495;51.808;7.478;2023-06-01T10:22:23;14.95;;;7.90;;
12852;SDS011;6495;51.808;7.478;2023-06-01T10:24:55;14.10;;;8.98;;
12852;SDS011;6495;51.808;7.478;2023-06-01T10:27:27;17.33;;;9.23;;
12852;SDS011;6495;51.808;7.478;2023-06-01T10:30:04;15.00;;;9.07;;
12852;SDS011;6495;51.808;7.478;2023-06-01T10:32:45;15.88;;;8.88;;
12852;SDS011;6495;51.808;7.478;2023-06-01T10:38:25;18.67;;;9.52;;
12852;SDS011;6495;51.808;7.478;2023-06-01T10:43:57;14.38;;;9.18;;
12852;SDS011;6495;51.808;7.478;2023-06-01T10:46:39;15.85;;;9.65;;
12852;SDS011;6495;51.808;7.478;2023-06-01T10:49:11;17.45;;;9.80;;
12852;SDS011;6495;51.808;7.478;2023-06-01T10:51:39;14.32;;;9.35;;
12852;SDS011;6495;51.808;7.478;2023-06-01T10:54:24;17.23;;;9.77;;
12852;SDS011;6495;51.808;7.478;2023-06-01T11:02:42;16.20;;;8.50;;
12852;SDS011;6495;51.808;7.478;2023-06-01T11:05:37;13.70;;;7.78;;
12852;SDS011;6495;51.808;7.478;2023-06-01T11:14:32;14.70;;;8.30;;
12852;SDS011;6495;51.808;7.478;2023-06-01T11:19:59;11.30;;;6.90;;
12852;SDS011;6495;51.808;7.478;2023-06-01T11:22:37;16.58;;;6.75;;
12852;SDS011;6495;51.808;7.478;2023-06-01T11:25:06;10.45;;;7.00;;
12852;SDS011;6495;51.808;7.478;2023-06-01T11:27:43;13.30;;;7.68;;
12852;SDS011;6495;51.808;7.478;2023-06-01T11:30:19;10.65;;;6.53;;
12852;SDS011;6495;51.808;7.478;2023-06-01T11:32:48;13.25;;;7.65;;
12852;SDS011;6495;51.808;7.478;2023-06-01T11:35:20;13.45;;;7.85;;
12852;SDS011;6495;51.808;7.478;2023-06-01T11:37:53;11.63;;;7.47;;
12852;SDS011;6495;51.808;7.478;2023-06-01T11:40:23;11.20;;;7.55;;
12852;SDS011;6495;51.808;7.478;2023-06-01T11:42:58;12.07;;;7.18;;
12852;SDS011;6495;51.808;7.478;2023-06-01T11:45:28;10.98;;;6.43;;
12852;SDS011;6495;51.808;7.478;2023-06-01T11:47:57;9.85;;;5.43;;
12852;SDS011;6495;51.808;7.478;2023-06-01T11:50:45;10.60;;;5.95;;
12852;SDS011;6495;51.808;7.478;2023-06-01T11:53:14;11.90;;;5.65;;
12852;SDS011;6495;51.808;7.478;2023-06-01T11:55:47;12.15;;;6.07;;
12852;SDS011;6495;51.808;7.478;2023-06-01T11:58:20;9.68;;;5.65;;
12852;SDS011;6495;51.808;7.478;2023-06-01T12:00:51;6.65;;;4.95;;
12852;SDS011;6495;51.808;7.478;2023-06-01T12:03:22;7.55;;;5.35;;
12852;SDS011;6495;51.808;7.478;2023-06-01T12:05:57;9.25;;;5.22;;
12852;SDS011;6495;51.808;7.478;2023-06-01T12:08:25;8.88;;;5.63;;
12852;SDS011;6495;51.808;7.478;2023-06-01T12:11:08;9.18;;;5.60;;
12852;SDS011;6495;51.808;7.478;2023-06-01T12:13:38;8.23;;;5.45;;
12852;SDS011;6495;51.808;7.478;2023-06-01T12:16:08;10.15;;;5.60;;
12852;SDS011;6495;51.808;7.478;2023-06-01T12:18:50;8.70;;;5.50;;
12852;SDS011;6495;51.808;7.478;2023-06-01T12:21:18;10.13;;;5.47;;
12852;SDS011;6495;51.808;7.478;2023-06-01T12:23:48;12.63;;;6.20;;
12852;SDS011;6495;51.808;7.478;2023-06-01T12:26:18;8.73;;;5.68;;
12852;SDS011;6495;51.808;7.478;2023-06-01T12:28:47;8.35;;;5.68;;
12852;SDS011;6495;51.808;7.478;2023-06-01T12:31:28;7.82;;;5.35;;
12852;SDS011;6495;51.808;7.478;2023-06-01T12:33:56;11.30;;;5.53;;
12852;SDS011;6495;51.808;7.478;2023-06-01T12:36:28;8.05;;;5.65;;
12852;SDS011;6495;51.808;7.478;2023-06-01T12:39:00;9.88;;;5.50;;
12852;SDS011;6495;51.808;7.478;2023-06-01T12:41:31;7.70;;;5.32;;
12852;SDS011;6495;51.808;7.478;2023-06-01T12:44:00;7.82;;;5.15;;
12852;SDS011;6495;51.808;7.478;2023-06-01T12:46:29;7.32;;;5.10;;
12852;SDS011;6495;51.808;7.478;2023-06-01T12:49:10;5.88;;;4.18;;
12852;SDS011;6495;51.808;7.478;2023-06-01T12:51:40;8.65;;;5.40;;
12852;SDS011;6495;51.808;7.478;2023-06-01T12:54:08;8.60;;;5.10;;
12852;SDS011;6495;51.808;7.478;2023-06-01T12:56:36;8.02;;;5.43;;
12852;SDS011;6495;51.808;7.478;2023-06-01T12:59:05;8.13;;;5.60;;
12852;SDS011;6495;51.808;7.478;2023-06-01T13:01:34;7.72;;;4.90;;
12852;SDS011;6495;51.808;7.478;2023-06-01T13:04:03;12.98;;;5.20;;
12852;SDS011;6495;51.808;7.478;2023-06-01T13:06:31;10.82;;;4.95;;
12852;SDS011;6495;51.808;7.478;2023-06-01T13:09:00;6.85;;;5.00;;
12852;SDS011;6495;51.808;7.478;2023-06-01T13:11:29;7.15;;;4.90;;
12852;SDS011;6495;51.808;7.478;2023-06-01T13:13:58;9.40;;;4.75;;
12852;SDS011;6495;51.808;7.478;2023-06-01T13:16:26;9.68;;;5.40;;
12852;SDS011;6495;51.808;7.478;2023-06-01T13:18:56;9.77;;;5.45;;
12852;SDS011;6495;51.808;7.478;2023-06-01T13:21:24;8.98;;;5.32;;
12852;SDS011;6495;51.808;7.478;2023-06-01T13:23:52;9.68;;;4.85;;
12852;SDS011;6495;51.808;7.478;2023-06-01T13:26:20;8.65;;;4.97;;
12852;SDS011;6495;51.808;7.478;2023-06-01T13:28:51;9.45;;;5.15;;
12852;SDS011;6495;51.808;7.478;2023-06-01T13:31:19;6.20;;;4.75;;
12852;SDS011;6495;51.808;7.478;2023-06-01T13:33:49;6.72;;;4.53;;
12852;SDS011;6495;51.808;7.478;2023-06-01T13:36:19;7.20;;;4.70;;
12852;SDS011;6495;51.808;7.478;2023-06-01T13:38:47;5.75;;;4.28;;
12852;SDS011;6495;51.808;7.478;2023-06-01T13:41:15;8.07;;;4.47;;
12852;SDS011;6495;51.808;7.478;2023-06-01T13:43:43;4.93;;;3.97;;
12852;SDS011;6495;51.808;7.478;2023-06-01T13:46:12;6.22;;;4.32;;
12852;SDS011;6495;51.808;7.478;2023-06-01T13:48:41;13.25;;;5.25;;
12852;SDS011;6495;51.808;7.478;2023-06-01T13:51:10;5.40;;;4.18;;
12852;SDS011;6495;51.808;7.478;2023-06-01T13:53:40;6.20;;;4.22;;
12852;SDS011;6495;51.808;7.478;2023-06-01T13:56:08;5.75;;;4.00;;
12852;SDS011;6495;51.808;7.478;2023-06-01T13:58:36;5.40;;;4.20;;
12852;SDS011;6495;51.808;7.478;2023-06-01T14:01:04;5.30;;;3.88;;
12852;SDS011;6495;51.808;7.478;2023-06-01T14:03:33;5.78;;;4.20;;
12852;SDS011;6495;51.808;7.478;2023-06-01T14:06:01;4.95;;;3.75;;
12852;SDS011;6495;51.808;7.478;2023-06-01T14:08:30;6.25;;;4.40;;
12852;SDS011;6495;51.808;7.478;2023-06-01T14:11:00;10.75;;;3.90;;
12852;SDS011;6495;51.808;7.478;2023-06-01T14:13:28;7.80;;;4.47;;
12852;SDS011;6495;51.808;7.478;2023-06-01T14:15:57;5.85;;;4.15;;
12852;SDS011;6495;51.808;7.478;2023-06-01T14:18:25;5.97;;;3.75;;
12852;SDS011;6495;51.808;7.478;2023-06-01T14:20:53;4.78;;;3.80;;
12852;SDS011;6495;51.808;7.478;2023-06-01T14:23:22;5.78;;;3.53;;
12852;SDS011;6495;51.808;7.478;2023-06-01T14:25:50;3.67;;;3.28;;
12852;SDS011;6495;51.808;7.478;2023-06-01T14:28:20;4.55;;;3.63;;
12852;SDS011;6495;51.808;7.478;2023-06-01T14:30:48;4.57;;;3.38;;
12852;SDS011;6495;51.808;7.478;2023-06-01T14:33:16;4.22;;;3.15;;
12852;SDS011;6495;51.808;7.478;2023-06-01T14:35:45;3.90;;;3.00;;
12852;SDS011;6495;51.808;7.478;2023-06-01T14:38:13;6.18;;;3.63;;
12852;SDS011;6495;51.808;7.478;2023-06-01T14:40:41;4.43;;;3.50;;
12852;SDS011;6495;51.808;7.478;2023-06-01T14:43:10;3.95;;;3.35;;
12852;SDS011;6495;51.808;7.478;2023-06-01T14:45:39;6.13;;;3.92;;
12852;SDS011;6495;51.808;7.478;2023-06-01T14:48:08;5.78;;;3.50;;
12852;SDS011;6495;51.808;7.478;2023-06-01T14:50:37;6.80;;;3.97;;
12852;SDS011;6495;51.808;7.478;2023-06-01T14:53:05;11.25;;;4.38;;
12852;SDS011;6495;51.808;7.478;2023-06-01T14:55:35;7.75;;;3.65;;
12852;SDS011;6495;51.808;7.478;2023-06-01T14:58:20;4.72;;;3.50;;
12852;SDS011;6495;51.808;7.478;2023-06-01T15:00:50;5.10;;;3.33;;
12852;SDS011;6495;51.808;7.478;2023-06-01T15:03:19;4.43;;;3.42;;
12852;SDS011;6495;51.808;7.478;2023-06-01T15:05:48;6.45;;;3.50;;
12852;SDS011;6495;51.808;7.478;2023-06-01T15:08:18;5.25;;;4.03;;
12852;SDS011;6495;51.808;7.478;2023-06-01T15:10:46;4.18;;;3.33;;
12852;SDS011;6495;51.808;7.478;2023-06-01T15:13:18;3.78;;;2.80;;
12852;SDS011;6495;51.808;7.478;2023-06-01T15:15:46;4.07;;;3.30;;
12852;SDS011;6495;51.808;7.478;2023-06-01T15:18:35;5.25;;;3.33;;
12852;SDS011;6495;51.808;7.478;2023-06-01T15:21:07;8.45;;;3.72;;
12852;SDS011;6495;51.808;7.478;2023-06-01T15:23:58;3.83;;;3.15;;
12852;SDS011;6495;51.808;7.478;2023-06-01T15:33:02;3.58;;;2.80;;
12852;SDS011;6495;51.808;7.478;2023-06-01T15:35:35;4.13;;;3.45;;
12852;SDS011;6495;51.808;7.478;2023-06-01T15:38:13;3.80;;;3.05;;
12852;SDS011;6495;51.808;7.478;2023-06-01T15:40:49;4.70;;;3.30;;
12852;SDS011;6495;51.808;7.478;2023-06-01T15:43:17;7.15;;;3.47;;
12852;SDS011;6495;51.808;7.478;2023-06-01T15:45:45;5.45;;;3.50;;